createdAt,value
2023-01-29T00:02:38.236Z,101451.34
2023-01-29T00:05:26.376Z,101439.97
2023-01-29T00:07:59.409Z,101444.59
2023-01-29T00:10:28.529Z,101458.78
2023-01-29T00:12:57.564Z,101448.50
2023-01-29T00:15:29.263Z,101454.56
2023-01-29T00:17:58.564Z,101453.91
2023-01-29T00:20:29.572Z,101452.41
2023-01-29T00:22:58.744Z,101458.03
2023-01-29T00:25:27.736Z,101466.63
2023-01-29T00:28:02.229Z,101465.84
2023-01-29T00:30:31.273Z,101452.41
2023-01-29T00:33:02.585Z,101462.13
2023-01-29T00:35:37.344Z,101474.91
2023-01-29T00:38:06.696Z,101471.25
2023-01-29T00:40:59.069Z,101468.22
2023-01-29T00:43:51.033Z,101478.63
2023-01-29T00:46:22.732Z,101475.50
2023-01-29T00:48:51.889Z,101473.47
2023-01-29T00:51:23.069Z,101485.56
2023-01-29T00:53:59.081Z,101490.47
2023-01-29T00:56:29.974Z,101488.81
2023-01-29T00:58:59.026Z,101493.25
2023-01-29T01:01:46.337Z,101502.28
2023-01-29T01:04:15.843Z,101494.88
2023-01-29T01:06:44.804Z,101505.59
2023-01-29T01:09:35.781Z,101503.63
2023-01-29T01:12:04.902Z,101505.38
2023-01-29T01:14:37.003Z,101508.91
2023-01-29T01:17:26.148Z,101511.84
2023-01-29T01:20:33.064Z,101502.16
2023-01-29T01:23:15.309Z,101500.56
2023-01-29T01:29:23.095Z,101503.84
2023-01-29T01:31:56.848Z,101504.06
2023-01-29T01:34:27.968Z,101511.34
2023-01-29T01:36:57.312Z,101513.66
2023-01-29T01:39:29.484Z,101511.22
2023-01-29T01:42:02.841Z,101516.16
2023-01-29T01:45:04.665Z,101524.31
2023-01-29T01:47:38.621Z,101532.75
2023-01-29T01:50:17.440Z,101534.25
2023-01-29T01:52:54.322Z,101546.75
2023-01-29T01:55:28.641Z,101555.78
2023-01-29T01:58:06.892Z,101563.38
2023-01-29T02:00:38.587Z,101568.72
2023-01-29T02:03:29.358Z,101575.81
2023-01-29T02:06:19.563Z,101585.03
2023-01-29T02:09:16.937Z,101583.09
2023-01-29T02:11:48.488Z,101588.75
2023-01-29T02:15:26.853Z,101591.50
2023-01-29T02:17:59.962Z,101595.53
2023-01-29T02:20:35.477Z,101600.69
2023-01-29T02:28:49.727Z,101601.78
2023-01-29T02:31:36.088Z,101601.16
2023-01-29T02:34:25.941Z,101603.59
2023-01-29T02:37:06.243Z,101594.16
2023-01-29T02:39:56.505Z,101600.19
2023-01-29T02:43:00.637Z,101606.97
2023-01-29T02:47:00.140Z,101608.75
2023-01-29T02:50:17.184Z,101610.38
2023-01-29T02:54:14.219Z,101622.56
2023-01-29T02:57:11.069Z,101634.94
2023-01-29T03:00:14.101Z,101639.69
2023-01-29T03:03:14.169Z,101644.47
2023-01-29T03:06:26.274Z,101649.88
2023-01-29T03:09:21.708Z,101645.66
2023-01-29T03:11:56.601Z,101657.00
2023-01-29T03:15:11.106Z,101670.38
2023-01-29T03:18:09.791Z,101673.72
2023-01-29T03:20:55.747Z,101677.75
2023-01-29T03:23:54.620Z,101686.94
2023-01-29T03:26:45.244Z,101695.28
2023-01-29T03:29:36.161Z,101703.00
2023-01-29T03:32:08.907Z,101706.38
2023-01-29T03:34:48.310Z,101709.38
2023-01-29T03:37:32.107Z,101716.50
2023-01-29T03:40:08.189Z,101715.47
2023-01-29T03:43:31.569Z,101725.47
2023-01-29T03:46:25.571Z,101723.03
2023-01-29T03:49:12.807Z,101732.16
2023-01-29T03:51:54.809Z,101732.31
2023-01-29T03:54:55.387Z,101736.59
2023-01-29T03:57:47.088Z,101734.66
2023-01-29T04:00:29.930Z,101748.97
2023-01-29T04:03:21.716Z,101757.81
2023-01-29T04:05:59.360Z,101758.53
2023-01-29T04:08:37.947Z,101761.91
2023-01-29T04:11:13.841Z,101778.31
2023-01-29T04:13:44.457Z,101784.44
2023-01-29T04:16:26.966Z,101784.03
2023-01-29T04:19:16.586Z,101797.22
2023-01-29T04:21:52.158Z,101804.31
2023-01-29T04:24:29.677Z,101818.50
2023-01-29T04:27:27.654Z,101809.59
2023-01-29T04:30:36.125Z,101825.81
2023-01-29T04:33:23.571Z,101836.16
2023-01-29T04:36:22.479Z,101841.63
2023-01-29T04:39:19.650Z,101839.44
2023-01-29T04:42:12.864Z,101838.00
2023-01-29T04:45:17.713Z,101852.19
2023-01-29T04:48:10.734Z,101847.34
2023-01-29T04:50:45.924Z,101848.72
2023-01-29T04:53:27.462Z,101856.25
2023-01-29T04:56:09.639Z,101862.53
2023-01-29T04:58:51.013Z,101870.84
2023-01-29T05:01:23.433Z,101869.84
2023-01-29T05:03:58.222Z,101884.16
2023-01-29T05:06:38.965Z,101894.56
2023-01-29T05:09:10.749Z,101899.03
2023-01-29T05:11:43.490Z,101911.41
2023-01-29T05:14:18.557Z,101912.84
2023-01-29T05:16:54.748Z,101917.88
2023-01-29T05:19:24.265Z,101922.31
2023-01-29T05:21:54.183Z,101933.06
2023-01-29T05:24:30.548Z,101931.44
2023-01-29T05:27:31.036Z,101948.16
2023-01-29T05:30:00.314Z,101959.69
2023-01-29T05:32:38.335Z,101957.56
2023-01-29T05:35:10.604Z,101964.22
2023-01-29T05:37:39.811Z,101968.66
2023-01-29T05:40:12.944Z,101976.38
2023-01-29T05:42:42.133Z,101988.94
2023-01-29T05:45:11.845Z,101985.69
2023-01-29T05:47:41.127Z,101994.72
2023-01-29T05:50:10.937Z,101992.53
2023-01-29T05:52:40.179Z,101997.91
2023-01-29T05:55:14.992Z,102010.00
2023-01-29T05:57:46.750Z,102024.22
2023-01-29T06:00:16.949Z,102024.59
2023-01-29T06:02:47.984Z,102026.56
2023-01-29T06:05:19.491Z,102021.81
2023-01-29T06:07:48.852Z,102035.88
2023-01-29T06:10:21.108Z,102034.78
2023-01-29T06:12:50.221Z,102037.19
2023-01-29T06:15:20.588Z,102039.72
2023-01-29T06:17:49.942Z,102027.22
2023-01-29T06:20:22.221Z,102041.47
2023-01-29T06:22:54.218Z,102051.44
2023-01-29T06:25:26.627Z,102055.28
2023-01-29T06:27:59.519Z,102062.94
2023-01-29T06:30:32.759Z,102062.72
2023-01-29T06:33:21.802Z,102069.00
2023-01-29T06:35:52.967Z,102075.56
2023-01-29T06:38:22.025Z,102081.31
2023-01-29T06:40:51.159Z,102083.88
2023-01-29T06:43:25.748Z,102092.59
2023-01-29T06:46:02.404Z,102095.41
2023-01-29T06:48:32.455Z,102101.44
2023-01-29T06:51:07.239Z,102102.72
2023-01-29T06:53:39.510Z,102111.56
2023-01-29T06:56:16.746Z,102114.09
2023-01-29T06:58:47.980Z,102106.34
2023-01-29T07:01:34.588Z,102115.31
2023-01-29T07:04:13.625Z,102112.38
2023-01-29T07:06:43.580Z,102121.75
2023-01-29T07:09:16.094Z,102117.66
2023-01-29T07:11:45.562Z,102116.81
2023-01-29T07:14:17.447Z,102121.88
2023-01-29T07:16:46.633Z,102112.56
2023-01-29T07:19:15.872Z,102121.34
2023-01-29T07:21:47.227Z,102119.09
2023-01-29T07:24:19.365Z,102126.84
2023-01-29T07:26:48.633Z,102131.16
2023-01-29T07:29:18.011Z,102130.94
2023-01-29T07:31:48.016Z,102141.06
2023-01-29T07:34:18.362Z,102147.06
2023-01-29T07:36:47.431Z,102153.69
2023-01-29T07:39:16.550Z,102158.66
2023-01-29T07:41:48.139Z,102156.63
2023-01-29T07:44:18.288Z,102172.91
2023-01-29T07:46:47.407Z,102170.72
2023-01-29T07:49:17.466Z,102181.94
2023-01-29T07:51:49.760Z,102181.94
2023-01-29T07:54:19.105Z,102178.97
2023-01-29T07:56:49.146Z,102166.13
2023-01-29T07:59:18.493Z,102168.34
2023-01-29T08:01:51.225Z,102176.25
2023-01-29T08:04:22.526Z,102172.19
2023-01-29T08:07:00.243Z,102169.47
2023-01-29T08:09:32.873Z,102179.50
2023-01-29T08:12:04.145Z,102175.78
2023-01-29T08:14:34.156Z,102180.16
2023-01-29T08:17:06.056Z,102182.69
2023-01-29T08:19:36.701Z,102187.59
2023-01-29T08:22:08.617Z,102191.94
2023-01-29T08:24:53.280Z,102184.63
2023-01-29T08:27:30.394Z,102189.56
2023-01-29T08:30:02.084Z,102182.81
2023-01-29T08:32:32.136Z,102192.94
2023-01-29T08:35:01.578Z,102206.72
2023-01-29T08:37:30.578Z,102216.25
2023-01-29T08:39:59.691Z,102216.19
2023-01-29T08:42:29.049Z,102231.38
2023-01-29T08:45:01.088Z,102232.19
2023-01-29T08:47:30.241Z,102227.25
2023-01-29T08:50:04.571Z,102229.56
2023-01-29T08:52:34.136Z,102234.94
2023-01-29T08:55:03.456Z,102234.94
2023-01-29T08:57:32.586Z,102235.72
2023-01-29T09:00:03.686Z,102232.19
2023-01-29T09:02:32.871Z,102240.41
2023-01-29T09:05:05.195Z,102249.72
2023-01-29T09:07:37.403Z,102243.69
2023-01-29T09:10:06.827Z,102250.19
2023-01-29T09:12:38.563Z,102244.19
2023-01-29T09:15:11.492Z,102242.59
2023-01-29T09:17:41.826Z,102252.78
2023-01-29T09:20:13.916Z,102259.63
2023-01-29T09:22:43.521Z,102274.88
2023-01-29T09:25:18.330Z,102278.13
2023-01-29T09:27:47.642Z,102289.00
2023-01-29T09:30:17.560Z,102295.00
2023-01-29T09:32:54.782Z,102306.75
2023-01-29T09:35:25.220Z,102305.41
2023-01-29T09:37:54.489Z,102305.94
2023-01-29T09:40:41.594Z,102296.16
2023-01-29T09:43:33.625Z,102299.97
2023-01-29T09:46:11.949Z,102303.25
2023-01-29T09:48:41.254Z,102293.16
2023-01-29T09:51:26.928Z,102290.16
2023-01-29T09:54:14.096Z,102297.78
2023-01-29T09:56:46.175Z,102296.41
2023-01-29T09:59:23.946Z,102307.03
2023-01-29T10:01:59.749Z,102309.75
2023-01-29T10:04:59.413Z,102318.50
2023-01-29T10:07:45.738Z,102315.75
2023-01-29T10:10:30.519Z,102315.72
2023-01-29T10:13:04.759Z,102323.91
2023-01-29T10:15:38.812Z,102340.84
2023-01-29T10:18:33.891Z,102332.66
2023-01-29T10:21:25.697Z,102340.56
2023-01-29T10:24:27.471Z,102340.84
2023-01-29T10:26:57.360Z,102351.19
2023-01-29T10:29:37.816Z,102348.47
2023-01-29T10:32:07.614Z,102355.56
2023-01-29T10:34:50.134Z,102372.75
2023-01-29T10:37:26.794Z,102370.28
2023-01-29T10:40:01.114Z,102378.19
2023-01-29T10:42:47.460Z,102375.22
2023-01-29T10:45:56.977Z,102378.50
2023-01-29T10:48:47.553Z,102388.28
2023-01-29T10:51:33.747Z,102397.03
2023-01-29T10:54:24.967Z,102398.66
2023-01-29T10:57:03.544Z,102409.00
2023-01-29T10:59:57.257Z,102407.34
2023-01-29T11:02:26.656Z,102401.91
2023-01-29T11:04:58.879Z,102403.53
2023-01-29T11:07:33.688Z,102406.19
2023-01-29T11:10:13.479Z,102414.31
2023-01-29T11:12:47.483Z,102412.75
2023-01-29T11:15:20.173Z,102415.22
2023-01-29T11:18:22.416Z,102421.78
2023-01-29T11:21:05.296Z,102419.06
2023-01-29T11:23:35.538Z,102415.00
2023-01-29T11:26:05.941Z,102430.47
2023-01-29T11:28:44.912Z,102436.72
2023-01-29T11:31:27.308Z,102437.63
2023-01-29T11:34:22.983Z,102435.72
2023-01-29T11:37:06.967Z,102435.84
2023-01-29T11:39:49.752Z,102442.09
2023-01-29T11:42:24.419Z,102445.88
2023-01-29T11:44:54.071Z,102440.53
2023-01-29T11:47:31.615Z,102435.63
2023-01-29T11:50:05.136Z,102438.22
2023-01-29T11:52:43.103Z,102443.44
2023-01-29T11:55:48.152Z,102443.94
2023-01-29T11:58:32.693Z,102435.84
2023-01-29T12:01:02.470Z,102440.91
2023-01-29T12:03:50.332Z,102442.63
2023-01-29T12:06:43.490Z,102437.69
2023-01-29T12:09:28.924Z,102435.84
2023-01-29T12:12:19.863Z,102442.53
2023-01-29T12:15:26.761Z,102441.56
2023-01-29T12:18:07.511Z,102442.00
2023-01-29T12:20:51.313Z,102451.28
2023-01-29T12:23:51.723Z,102444.63
2023-01-29T12:26:45.821Z,102458.56
2023-01-29T12:29:37.927Z,102454.66
2023-01-29T12:32:16.043Z,102456.19
2023-01-29T12:34:54.471Z,102451.09
2023-01-29T12:37:48.958Z,102457.31
2023-01-29T12:40:20.303Z,102457.94
2023-01-29T12:42:56.600Z,102460.41
2023-01-29T12:45:29.511Z,102463.47
2023-01-29T12:48:33.856Z,102466.19
2023-01-29T12:51:39.987Z,102475.94
2023-01-29T12:54:20.532Z,102486.69
2023-01-29T12:56:54.568Z,102485.59
2023-01-29T12:59:48.581Z,102490.00
2023-01-29T13:02:41.734Z,102490.69
2023-01-29T13:06:00.240Z,102492.78
2023-01-29T13:08:40.530Z,102499.00
2023-01-29T13:11:16.574Z,102491.66
2023-01-29T13:13:54.590Z,102497.63
2023-01-29T13:16:37.169Z,102501.28
2023-01-29T13:19:31.320Z,102501.31
2023-01-29T13:22:04.517Z,102509.81
2023-01-29T13:24:44.335Z,102507.69
2023-01-29T13:27:28.952Z,102513.66
2023-01-29T13:30:02.498Z,102511.41
2023-01-29T13:32:37.681Z,102515.75
2023-01-29T13:35:20.095Z,102516.34
2023-01-29T13:37:57.338Z,102515.22
2023-01-29T13:40:30.084Z,102527.69
2023-01-29T13:43:00.288Z,102528.50
2023-01-29T13:45:45.743Z,102531.88
2023-01-29T13:48:30.081Z,102528.44
2023-01-29T13:51:03.897Z,102521.97
2023-01-29T13:53:39.215Z,102533.53
2023-01-29T13:56:36.316Z,102522.38
2023-01-29T13:59:07.812Z,102529.94
2023-01-29T14:01:52.105Z,102529.84
2023-01-29T14:04:24.910Z,102535.22
2023-01-29T14:06:59.414Z,102527.88
2023-01-29T14:09:43.059Z,102527.53
2023-01-29T14:12:38.953Z,102530.19
2023-01-29T14:15:25.235Z,102529.59
2023-01-29T14:18:16.965Z,102529.13
2023-01-29T14:20:49.545Z,102528.50
2023-01-29T14:23:55.427Z,102539.19
2023-01-29T14:26:46.992Z,102534.34
2023-01-29T14:29:34.843Z,102532.31
2023-01-29T14:32:07.777Z,102527.94
2023-01-29T14:34:51.219Z,102526.31
2023-01-29T14:37:39.837Z,102528.00
2023-01-29T14:40:23.845Z,102535.94
2023-01-29T14:43:05.505Z,102535.69
2023-01-29T14:45:45.779Z,102536.72
2023-01-29T14:48:49.480Z,102548.91
2023-01-29T14:51:33.295Z,102555.59
2023-01-29T14:54:10.893Z,102553.53
2023-01-29T14:57:06.014Z,102560.63
2023-01-29T15:00:01.953Z,102568.09
2023-01-29T15:02:43.680Z,102571.75
2023-01-29T15:05:21.817Z,102585.38
2023-01-29T15:08:06.042Z,102589.47
2023-01-29T15:10:44.989Z,102583.94
2023-01-29T15:13:37.301Z,102587.56
2023-01-29T15:16:18.699Z,102588.50
2023-01-29T15:18:53.932Z,102582.13
2023-01-29T15:21:24.074Z,102585.88
2023-01-29T15:24:18.631Z,102596.19
2023-01-29T15:26:48.252Z,102593.34
2023-01-29T15:29:31.662Z,102598.81
2023-01-29T15:32:02.755Z,102592.75
2023-01-29T15:34:32.155Z,102599.22
2023-01-29T15:37:01.366Z,102605.06
2023-01-29T15:39:46.768Z,102608.34
2023-01-29T15:42:24.530Z,102612.59
2023-01-29T15:44:56.797Z,102618.06
2023-01-29T15:47:32.532Z,102615.50
2023-01-29T15:50:02.104Z,102620.94
2023-01-29T15:52:40.004Z,102617.66
2023-01-29T15:55:18.085Z,102632.03
2023-01-29T15:57:50.430Z,102635.56
2023-01-29T16:00:29.078Z,102639.50
2023-01-29T16:03:07.549Z,102637.56
2023-01-29T16:05:39.503Z,102646.19
2023-01-29T16:08:18.454Z,102647.31
2023-01-29T16:10:54.610Z,102653.66
2023-01-29T16:17:42.141Z,102660.06
2023-01-29T16:20:32.640Z,102661.53
2023-01-29T16:23:06.140Z,102666.63
2023-01-29T16:25:37.547Z,102677.91
2023-01-29T16:28:18.619Z,102671.28
2023-01-29T16:30:48.521Z,102670.94
2023-01-29T16:33:23.372Z,102665.88
2023-01-29T16:35:56.970Z,102683.19
2023-01-29T16:38:37.333Z,102689.47
2023-01-29T16:41:36.502Z,102694.66
2023-01-29T16:44:36.984Z,102700.22
2023-01-29T16:47:39.768Z,102700.91
2023-01-29T16:55:49.037Z,102697.00
2023-01-29T16:59:40.152Z,102696.84
2023-01-29T17:02:52.013Z,102715.59
2023-01-29T17:06:04.653Z,102704.38
2023-01-29T17:13:55.241Z,102726.19
2023-01-29T17:16:57.681Z,102725.38
2023-01-29T17:32:44.440Z,102765.00
2023-01-29T17:43:04.822Z,102758.09
2023-01-29T17:46:08.800Z,102754.34
2023-01-29T17:48:41.965Z,102766.56
2023-01-29T17:51:24.780Z,102757.63
2023-01-29T17:53:56.412Z,102758.88
2023-01-29T17:56:32.458Z,102749.69
2023-01-29T17:59:01.969Z,102753.50
2023-01-29T18:01:31.674Z,102755.44
2023-01-29T18:04:03.933Z,102754.81
2023-01-29T18:06:36.022Z,102763.56
2023-01-29T18:09:06.331Z,102762.56
2023-01-29T18:11:44.967Z,102761.59
2023-01-29T18:14:17.391Z,102762.53
2023-01-29T18:16:55.154Z,102759.78
2023-01-29T18:19:29.305Z,102770.78
2023-01-29T18:21:58.677Z,102770.81
2023-01-29T18:24:38.443Z,102777.09
2023-01-29T18:27:07.918Z,102779.81
2023-01-29T18:29:37.720Z,102788.09
2023-01-29T18:32:34.111Z,102790.50
2023-01-29T18:35:09.433Z,102800.16
2023-01-29T18:37:49.859Z,102801.56
2023-01-29T18:40:35.491Z,102800.97
2023-01-29T18:43:31.997Z,102813.06
2023-01-29T18:47:24.913Z,102807.41
2023-01-29T18:50:14.471Z,102809.06
2023-01-29T18:52:39.569Z,102805.53
2023-01-29T18:55:29.230Z,102812.38
2023-01-29T18:58:35.528Z,102811.28
2023-01-29T19:03:10.177Z,102811.56
2023-01-29T19:05:42.320Z,102806.06
2023-01-29T19:08:14.468Z,102804.94
2023-01-29T19:10:43.556Z,102799.94
2023-01-29T19:13:22.643Z,102796.41
2023-01-29T19:15:51.624Z,102797.22
2023-01-29T19:18:26.774Z,102802.03
2023-01-29T19:20:56.505Z,102786.16
2023-01-29T19:23:25.464Z,102791.50
2023-01-29T19:26:00.920Z,102780.88
2023-01-29T19:28:31.899Z,102773.66
2023-01-29T19:31:02.994Z,102765.28
2023-01-29T19:33:34.499Z,102760.88
2023-01-29T19:36:03.957Z,102774.09
2023-01-29T19:38:35.384Z,102763.38
2023-01-29T19:41:06.120Z,102759.09
2023-01-29T19:43:35.527Z,102756.75
2023-01-29T19:46:04.841Z,102760.00
2023-01-29T19:48:34.327Z,102756.38
2023-01-29T19:55:09.157Z,102745.16
2023-01-29T19:58:27.107Z,102750.56
2023-01-29T20:01:32.581Z,102753.09
2023-01-29T20:05:08.008Z,102747.03
2023-01-29T20:07:03.881Z,102748.97
2023-01-29T20:10:52.382Z,102753.69
2023-01-29T20:13:43.906Z,102742.34
2023-01-29T20:19:41.208Z,102748.78
2023-01-29T20:22:16.202Z,102741.47
2023-01-29T20:24:51.898Z,102728.72
2023-01-29T20:27:25.700Z,102731.47
2023-01-29T20:30:01.021Z,102727.75
2023-01-29T20:33:39.681Z,102728.28
2023-01-29T20:41:17.351Z,102709.97
2023-01-29T20:43:51.588Z,102704.59
2023-01-29T20:46:23.466Z,102701.28
2023-01-29T20:48:58.377Z,102694.22
2023-01-29T20:51:49.719Z,102689.63
2023-01-29T20:54:26.960Z,102688.94
2023-01-29T20:56:59.109Z,102684.56
2023-01-29T21:00:32.678Z,102676.44
2023-01-29T21:08:41.329Z,102698.28
2023-01-29T21:22:22.666Z,102700.13
2023-01-29T21:25:01.774Z,102694.78
2023-01-29T21:27:31.058Z,102696.44
2023-01-29T21:30:25.768Z,102688.50
2023-01-29T21:33:47.417Z,102693.09
2023-01-29T21:39:22.084Z,102687.22
2023-01-29T21:42:12.535Z,102677.47
2023-01-29T21:44:44.795Z,102676.13
2023-01-29T21:47:13.985Z,102672.00
2023-01-29T21:49:45.579Z,102671.59
2023-01-29T21:52:24.217Z,102678.44
2023-01-29T21:55:05.160Z,102679.06
2023-01-29T21:57:34.802Z,102671.22
2023-01-29T22:00:06.210Z,102670.09
2023-01-29T22:02:46.780Z,102669.19
2023-01-29T22:05:34.764Z,102670.09
2023-01-29T22:08:08.614Z,102656.94
2023-01-29T22:10:41.813Z,102653.16
2023-01-29T22:13:21.858Z,102643.31
2023-01-29T22:16:03.377Z,102642.78
2023-01-29T22:18:34.541Z,102638.63
2023-01-29T22:21:06.895Z,102643.63
2023-01-29T22:23:40.510Z,102642.72
2023-01-29T22:26:14.020Z,102628.97
2023-01-29T22:28:46.119Z,102622.66
2023-01-29T22:31:19.112Z,102617.78
2023-01-29T22:33:54.918Z,102619.66
2023-01-29T22:36:32.760Z,102618.06
2023-01-29T22:39:10.117Z,102623.22
2023-01-29T22:41:47.537Z,102623.69
2023-01-29T22:44:21.623Z,102626.41
2023-01-29T22:46:51.406Z,102621.88
2023-01-29T22:49:28.984Z,102623.22
2023-01-29T22:52:16.242Z,102618.84
2023-01-29T22:54:52.368Z,102621.16
2023-01-29T22:57:29.079Z,102615.59
2023-01-29T23:00:12.833Z,102609.75
2023-01-29T23:02:42.230Z,102605.91
2023-01-29T23:05:16.155Z,102617.44
2023-01-29T23:07:46.125Z,102611.72
2023-01-29T23:10:19.433Z,102616.22
2023-01-29T23:12:49.775Z,102623.03
2023-01-29T23:15:19.489Z,102626.31
2023-01-29T23:17:51.992Z,102629.94
2023-01-29T23:20:24.891Z,102625.25
2023-01-29T23:23:00.117Z,102623.34
2023-01-29T23:25:48.783Z,102631.09
2023-01-29T23:28:24.493Z,102631.97
2023-01-29T23:30:56.973Z,102629.97
2023-01-29T23:33:42.548Z,102632.09
2023-01-29T23:36:12.203Z,102631.53
2023-01-29T23:38:49.482Z,102634.06
2023-01-29T23:41:22.620Z,102637.25
2023-01-29T23:43:55.419Z,102640.28
2023-01-29T23:46:35.405Z,102635.19
2023-01-29T23:49:06.570Z,102625.84
2023-01-29T23:51:52.551Z,102630.25
2023-01-29T23:54:33.054Z,102628.19
2023-01-29T23:57:03.743Z,102622.16
2023-01-29T23:59:37.209Z,102614.31
